Elizabethtown, Ohio
Current Conditions -  °F | °C
As of 6:52 AM on Saturday 27 Dec 2014 (Local Time) from KCVG Reporting Station
Overcast Overcast  
Wind Chill: 40°   Ceiling: 7000
Heat Index: 44°   Visibility: 10mi
Dew Point: 32°   Wind: 7mph
Humidity: 63%   Direction: 190°S
Pressure: 30.2"   Gusts: NA
Location:  39.145°N, 84.7527°W
Report Text: KCVG 271152Z 19006KT 10SM OVC070 07/00 A3020 RMK AO2 SLP227 T00670000 10072 20017 53003
Loading
Personal Weather Stations






























Interactive Weather Map New forecast layout! Learn more

10-Day Weather Forecast

Advertisements
Track Severe Weather on mobile